sensor_id;sensor_type;location;lat;lon;timestamp;pressure;altitude;pressure_sealevel;temperature;humidity
34696;BME280;20918;51.138;17.370;2023-02-01T00:02:56;99566.07;;;1.72;90.41
34696;BME280;20918;51.138;17.370;2023-02-01T00:05:58;99578.45;;;1.71;90.43
34696;BME280;20918;51.138;17.370;2023-02-01T00:09:00;99582.59;;;1.70;90.54
34696;BME280;20918;51.138;17.370;2023-02-01T00:12:01;99583.98;;;1.66;90.48
34696;BME280;20918;51.138;17.370;2023-02-01T00:15:04;99587.25;;;1.60;90.31
34696;BME280;20918;51.138;17.370;2023-02-01T00:18:06;99586.52;;;1.51;90.17
34696;BME280;20918;51.138;17.370;2023-02-01T00:21:07;99596.68;;;1.46;90.19
34696;BME280;20918;51.138;17.370;2023-02-01T00:24:10;99600.47;;;1.40;90.21
34696;BME280;20918;51.138;17.370;2023-02-01T00:27:11;99601.67;;;1.34;90.03
34696;BME280;20918;51.138;17.370;2023-02-01T00:30:18;99609.73;;;1.27;90.08
34696;BME280;20918;51.138;17.370;2023-02-01T00:33:19;99612.52;;;1.20;89.91
34696;BME280;20918;51.138;17.370;2023-02-01T00:36:20;99616.17;;;1.13;89.96
34696;BME280;20918;51.138;17.370;2023-02-01T00:39:21;99616.61;;;1.07;89.95
34696;BME280;20918;51.138;17.370;2023-02-01T00:42:24;99620.48;;;1.02;89.94
34696;BME280;20918;51.138;17.370;2023-02-01T00:45:25;99620.49;;;0.98;90.15
34696;BME280;20918;51.138;17.370;2023-02-01T00:48:28;99622.29;;;0.97;90.45
34696;BME280;20918;51.138;17.370;2023-02-01T00:51:30;99622.18;;;0.99;90.44
34696;BME280;20918;51.138;17.370;2023-02-01T00:54:31;99622.45;;;1.02;90.57
34696;BME280;20918;51.138;17.370;2023-02-01T00:57:34;99618.69;;;1.03;90.66
34696;BME280;20918;51.138;17.370;2023-02-01T01:00:36;99618.14;;;1.04;90.59
34696;BME280;20918;51.138;17.370;2023-02-01T01:03:41;99613.08;;;1.06;90.65
34696;BME280;20918;51.138;17.370;2023-02-01T01:06:47;99601.83;;;1.07;90.90
34696;BME280;20918;51.138;17.370;2023-02-01T01:09:47;99605.10;;;1.12;90.91
34696;BME280;20918;51.138;17.370;2023-02-01T01:12:49;99602.94;;;1.16;91.09
34696;BME280;20918;51.138;17.370;2023-02-01T01:15:51;99610.92;;;1.18;91.09
34696;BME280;20918;51.138;17.370;2023-02-01T01:18:53;99608.70;;;1.20;91.19
34696;BME280;20918;51.138;17.370;2023-02-01T01:21:55;99616.55;;;1.24;91.34
34696;BME280;20918;51.138;17.370;2023-02-01T01:24:57;99616.39;;;1.26;91.33
34696;BME280;20918;51.138;17.370;2023-02-01T01:27:58;99627.20;;;1.30;91.48
34696;BME280;20918;51.138;17.370;2023-02-01T01:31:01;99615.73;;;1.32;91.56
34696;BME280;20918;51.138;17.370;2023-02-01T01:34:04;99610.26;;;1.31;91.49
34696;BME280;20918;51.138;17.370;2023-02-01T01:37:08;99606.98;;;1.28;91.29
34696;BME280;20918;51.138;17.370;2023-02-01T01:40:12;99614.17;;;1.25;91.12
34696;BME280;20918;51.138;17.370;2023-02-01T01:43:18;99615.15;;;1.20;91.23
34696;BME280;20918;51.138;17.370;2023-02-01T01:46:35;99608.19;;;1.17;91.78
34696;BME280;20918;51.138;17.370;2023-02-01T01:49:38;99610.80;;;1.20;91.61
34696;BME280;20918;51.138;17.370;2023-02-01T01:52:41;99609.02;;;1.20;91.74
34696;BME280;20918;51.138;17.370;2023-02-01T01:55:44;99619.52;;;1.24;91.91
34696;BME280;20918;51.138;17.370;2023-02-01T01:58:51;99613.11;;;1.28;91.82
34696;BME280;20918;51.138;17.370;2023-02-01T02:01:53;99619.30;;;1.36;91.72
34696;BME280;20918;51.138;17.370;2023-02-01T02:04:56;99610.08;;;1.42;91.35
34696;BME280;20918;51.138;17.370;2023-02-01T02:07:59;99621.33;;;1.52;91.32
34696;BME280;20918;51.138;17.370;2023-02-01T02:11:01;99622.52;;;1.55;91.16
34696;BME280;20918;51.138;17.370;2023-02-01T02:14:03;99618.09;;;1.58;91.01
34696;BME280;20918;51.138;17.370;2023-02-01T02:20:39;99625.73;;;1.58;90.75
34696;BME280;20918;51.138;17.370;2023-02-01T02:45:20;99621.98;;;1.46;91.59
34696;BME280;20918;51.138;17.370;2023-02-01T02:48:59;99622.43;;;1.47;91.70
34696;BME280;20918;51.138;17.370;2023-02-01T02:52:10;99618.30;;;1.46;91.73
34696;BME280;20918;51.138;17.370;2023-02-01T02:55:34;99616.70;;;1.49;91.75
34696;BME280;20918;51.138;17.370;2023-02-01T02:58:40;99609.18;;;1.51;91.90
34696;BME280;20918;51.138;17.370;2023-02-01T03:02:01;99614.36;;;1.59;92.07
34696;BME280;20918;51.138;17.370;2023-02-01T03:05:21;99609.73;;;1.64;91.78
34696;BME280;20918;51.138;17.370;2023-02-01T03:08:28;99615.61;;;1.69;91.54
34696;BME280;20918;51.138;17.370;2023-02-01T03:11:29;99619.05;;;1.74;91.41
34696;BME280;20918;51.138;17.370;2023-02-01T03:14:57;99618.41;;;1.76;91.21
34696;BME280;20918;51.138;17.370;2023-02-01T03:18:01;99609.70;;;1.78;91.13
34696;BME280;20918;51.138;17.370;2023-02-01T03:21:10;99612.55;;;1.82;90.81
34696;BME280;20918;51.138;17.370;2023-02-01T03:24:20;99610.44;;;1.88;90.63
34696;BME280;20918;51.138;17.370;2023-02-01T03:27:32;99611.48;;;1.97;90.45
34696;BME280;20918;51.138;17.370;2023-02-01T03:30:46;99615.99;;;2.04;89.99
34696;BME280;20918;51.138;17.370;2023-02-01T03:33:47;99616.88;;;2.08;89.84
34696;BME280;20918;51.138;17.370;2023-02-01T03:36:52;99609.33;;;2.11;89.59
34696;BME280;20918;51.138;17.370;2023-02-01T03:40:07;99613.63;;;2.09;89.21
34696;BME280;20918;51.138;17.370;2023-02-01T03:43:12;99616.15;;;2.06;89.04
34696;BME280;20918;51.138;17.370;2023-02-01T03:46:22;99614.70;;;2.07;88.71
34696;BME280;20918;51.138;17.370;2023-02-01T03:49:35;99616.83;;;2.06;88.64
34696;BME280;20918;51.138;17.370;2023-02-01T03:52:44;99612.42;;;2.05;88.39
34696;BME280;20918;51.138;17.370;2023-02-01T03:55:50;99610.30;;;2.01;88.37
34696;BME280;20918;51.138;17.370;2023-02-01T03:58:52;99603.34;;;1.98;87.97
34696;BME280;20918;51.138;17.370;2023-02-01T04:02:01;99610.13;;;1.98;88.26
34696;BME280;20918;51.138;17.370;2023-02-01T04:05:03;99606.91;;;2.00;88.30
34696;BME280;20918;51.138;17.370;2023-02-01T04:08:06;99610.20;;;2.02;88.28
34696;BME280;20918;51.138;17.370;2023-02-01T04:11:07;99600.69;;;2.03;88.18
34696;BME280;20918;51.138;17.370;2023-02-01T04:14:07;99601.35;;;2.04;88.00
34696;BME280;20918;51.138;17.370;2023-02-01T04:17:08;99603.75;;;2.02;87.75
34696;BME280;20918;51.138;17.370;2023-02-01T04:20:10;99598.27;;;2.01;87.55
34696;BME280;20918;51.138;17.370;2023-02-01T04:23:11;99593.11;;;1.97;87.46
34696;BME280;20918;51.138;17.370;2023-02-01T04:26:12;99595.58;;;1.95;87.44
34696;BME280;20918;51.138;17.370;2023-02-01T04:29:13;99592.13;;;1.90;87.33
34696;BME280;20918;51.138;17.370;2023-02-01T04:32:15;99595.75;;;1.89;87.39
34696;BME280;20918;51.138;17.370;2023-02-01T04:35:16;99591.08;;;1.86;87.35
34696;BME280;20918;51.138;17.370;2023-02-01T04:38:19;99584.99;;;1.79;87.22
34696;BME280;20918;51.138;17.370;2023-02-01T04:41:22;99589.48;;;1.75;87.11
34696;BME280;20918;51.138;17.370;2023-02-01T04:44:23;99587.14;;;1.72;86.95
34696;BME280;20918;51.138;17.370;2023-02-01T04:47:24;99587.70;;;1.69;87.16
34696;BME280;20918;51.138;17.370;2023-02-01T04:50:26;99587.65;;;1.68;86.91
34696;BME280;20918;51.138;17.370;2023-02-01T04:53:27;99588.37;;;1.68;87.01
34696;BME280;20918;51.138;17.370;2023-02-01T04:56:28;99588.94;;;1.67;86.99
34696;BME280;20918;51.138;17.370;2023-02-01T04:59:30;99589.36;;;1.66;87.05
34696;BME280;20918;51.138;17.370;2023-02-01T05:02:32;99597.34;;;1.71;87.16
34696;BME280;20918;51.138;17.370;2023-02-01T05:05:35;99590.52;;;1.73;87.09
34696;BME280;20918;51.138;17.370;2023-02-01T05:08:36;99595.73;;;1.82;87.38
34696;BME280;20918;51.138;17.370;2023-02-01T05:11:37;99597.55;;;1.88;87.19
34696;BME280;20918;51.138;17.370;2023-02-01T05:14:56;99596.27;;;1.95;87.04
34696;BME280;20918;51.138;17.370;2023-02-01T05:17:57;99587.16;;;2.00;86.82
34696;BME280;20918;51.138;17.370;2023-02-01T05:20:58;99589.98;;;2.06;86.75
34696;BME280;20918;51.138;17.370;2023-02-01T05:23:59;99588.73;;;2.11;86.12
34696;BME280;20918;51.138;17.370;2023-02-01T05:27:19;99581.67;;;2.20;86.31
34696;BME280;20918;51.138;17.370;2023-02-01T05:30:20;99581.46;;;2.22;85.96
34696;BME280;20918;51.138;17.370;2023-02-01T05:33:21;99571.02;;;2.27;85.63
34696;BME280;20918;51.138;17.370;2023-02-01T05:36:23;99570.71;;;2.30;85.59
34696;BME280;20918;51.138;17.370;2023-02-01T05:39:23;99568.95;;;2.35;85.52
34696;BME280;20918;51.138;17.370;2023-02-01T05:42:34;99561.27;;;2.36;85.02
34696;BME280;20918;51.138;17.370;2023-02-01T05:45:35;99560.52;;;2.39;84.84
34696;BME280;20918;51.138;17.370;2023-02-01T05:48:36;99559.55;;;2.43;84.64
34696;BME280;20918;51.138;17.370;2023-02-01T05:51:36;99560.96;;;2.42;84.65
34696;BME280;20918;51.138;17.370;2023-02-01T05:54:37;99554.59;;;2.41;84.29
34696;BME280;20918;51.138;17.370;2023-02-01T05:57:38;99547.77;;;2.44;84.25
34696;BME280;20918;51.138;17.370;2023-02-01T06:00:38;99550.33;;;2.40;84.19
34696;BME280;20918;51.138;17.370;2023-02-01T06:03:39;99546.66;;;2.36;83.92
34696;BME280;20918;51.138;17.370;2023-02-01T06:06:40;99548.70;;;2.35;83.87
34696;BME280;20918;51.138;17.370;2023-02-01T06:09:40;99546.17;;;2.32;83.73
34696;BME280;20918;51.138;17.370;2023-02-01T06:12:41;99550.42;;;2.31;83.73
34696;BME280;20918;51.138;17.370;2023-02-01T06:15:42;99549.00;;;2.31;83.53
34696;BME280;20918;51.138;17.370;2023-02-01T06:18:44;99551.06;;;2.32;83.70
34696;BME280;20918;51.138;17.370;2023-02-01T06:21:44;99553.39;;;2.33;83.37
34696;BME280;20918;51.138;17.370;2023-02-01T06:24:45;99553.16;;;2.34;83.75
34696;BME280;20918;51.138;17.370;2023-02-01T06:27:47;99552.01;;;2.35;83.67
34696;BME280;20918;51.138;17.370;2023-02-01T06:30:47;99559.39;;;2.38;83.61
34696;BME280;20918;51.138;17.370;2023-02-01T06:33:48;99555.11;;;2.40;83.71
34696;BME280;20918;51.138;17.370;2023-02-01T06:36:49;99553.81;;;2.40;83.90
34696;BME280;20918;51.138;17.370;2023-02-01T06:39:50;99556.05;;;2.43;84.03
34696;BME280;20918;51.138;17.370;2023-02-01T06:42:51;99563.25;;;2.46;83.89
34696;BME280;20918;51.138;17.370;2023-02-01T06:45:52;99563.02;;;2.49;83.86
34696;BME280;20918;51.138;17.370;2023-02-01T06:48:53;99567.38;;;2.54;83.85
34696;BME280;20918;51.138;17.370;2023-02-01T06:51:54;99564.23;;;2.58;83.57
34696;BME280;20918;51.138;17.370;2023-02-01T06:54:55;99561.43;;;2.62;83.34
34696;BME280;20918;51.138;17.370;2023-02-01T06:57:56;99564.54;;;2.66;83.52
34696;BME280;20918;51.138;17.370;2023-02-01T07:00:57;99564.08;;;2.67;83.30
34696;BME280;20918;51.138;17.370;2023-02-01T07:03:58;99559.89;;;2.69;83.04
34696;BME280;20918;51.138;17.370;2023-02-01T07:06:58;99562.26;;;2.71;83.20
34696;BME280;20918;51.138;17.370;2023-02-01T07:09:59;99554.54;;;2.73;82.89
34696;BME280;20918;51.138;17.370;2023-02-01T07:12:59;99550.59;;;2.77;82.68
34696;BME280;20918;51.138;17.370;2023-02-01T07:16:01;99548.12;;;2.79;82.81
34696;BME280;20918;51.138;17.370;2023-02-01T07:19:02;99549.92;;;2.82;82.60
34696;BME280;20918;51.138;17.370;2023-02-01T07:22:03;99551.74;;;2.83;82.52
34696;BME280;20918;51.138;17.370;2023-02-01T07:25:04;99549.95;;;2.86;82.40
34696;BME280;20918;51.138;17.370;2023-02-01T07:28:04;99552.96;;;2.89;82.13
34696;BME280;20918;51.138;17.370;2023-02-01T07:31:13;99553.21;;;2.91;82.31
34696;BME280;20918;51.138;17.370;2023-02-01T07:34:15;99546.59;;;2.92;82.11
34696;BME280;20918;51.138;17.370;2023-02-01T07:37:16;99543.33;;;2.94;81.91
34696;BME280;20918;51.138;17.370;2023-02-01T07:40:17;99543.36;;;2.98;81.68
34696;BME280;20918;51.138;17.370;2023-02-01T07:43:18;99542.27;;;2.98;82.03
34696;BME280;20918;51.138;17.370;2023-02-01T07:46:19;99541.92;;;2.98;81.68
34696;BME280;20918;51.138;17.370;2023-02-01T07:49:19;99536.35;;;3.00;81.47
34696;BME280;20918;51.138;17.370;2023-02-01T07:52:20;99536.50;;;3.04;81.46
34696;BME280;20918;51.138;17.370;2023-02-01T07:55:24;99538.36;;;3.07;81.47
34696;BME280;20918;51.138;17.370;2023-02-01T07:58:25;99534.66;;;3.09;81.48
34696;BME280;20918;51.138;17.370;2023-02-01T08:01:28;99531.89;;;3.11;81.20
34696;BME280;20918;51.138;17.370;2023-02-01T08:04:29;99533.05;;;3.13;81.53
34696;BME280;20918;51.138;17.370;2023-02-01T08:07:29;99536.45;;;3.19;81.29
34696;BME280;20918;51.138;17.370;2023-02-01T08:10:30;99539.81;;;3.25;81.15
34696;BME280;20918;51.138;17.370;2023-02-01T08:13:31;99542.02;;;3.29;81.11
34696;BME280;20918;51.138;17.370;2023-02-01T08:16:33;99541.20;;;3.35;81.45
34696;BME280;20918;51.138;17.370;2023-02-01T08:19:35;99542.70;;;3.39;81.15
34696;BME280;20918;51.138;17.370;2023-02-01T08:22:36;99546.37;;;3.40;81.51
34696;BME280;20918;51.138;17.370;2023-02-01T08:25:36;99552.02;;;3.37;81.08
34696;BME280;20918;51.138;17.370;2023-02-01T08:28:39;99547.52;;;3.34;81.48
34696;BME280;20918;51.138;17.370;2023-02-01T08:31:40;99542.39;;;3.33;81.44
34696;BME280;20918;51.138;17.370;2023-02-01T08:34:41;99539.30;;;3.32;81.37
34696;BME280;20918;51.138;17.370;2023-02-01T08:37:42;99532.02;;;3.33;81.15
34696;BME280;20918;51.138;17.370;2023-02-01T08:40:42;99533.50;;;3.38;81.82
34696;BME280;20918;51.138;17.370;2023-02-01T08:43:44;99533.67;;;3.43;81.84
34696;BME280;20918;51.138;17.370;2023-02-01T08:46:44;99530.64;;;3.45;81.56
34696;BME280;20918;51.138;17.370;2023-02-01T08:49:45;99525.92;;;3.45;81.82
34696;BME280;20918;51.138;17.370;2023-02-01T08:52:49;99530.13;;;3.47;81.57
34696;BME280;20918;51.138;17.370;2023-02-01T08:55:50;99523.94;;;3.46;81.81
34696;BME280;20918;51.138;17.370;2023-02-01T08:58:50;99523.69;;;3.47;81.80
34696;BME280;20918;51.138;17.370;2023-02-01T09:01:51;99525.72;;;3.46;81.69
34696;BME280;20918;51.138;17.370;2023-02-01T09:04:52;99521.48;;;3.44;81.98
34696;BME280;20918;51.138;17.370;2023-02-01T09:07:55;99519.15;;;3.43;82.04
34696;BME280;20918;51.138;17.370;2023-02-01T09:11:05;99517.91;;;3.41;81.78
34696;BME280;20918;51.138;17.370;2023-02-01T09:14:06;99509.16;;;3.39;81.65
34696;BME280;20918;51.138;17.370;2023-02-01T09:17:07;99510.90;;;3.40;81.83
34696;BME280;20918;51.138;17.370;2023-02-01T09:20:08;99519.89;;;3.40;81.91
34696;BME280;20918;51.138;17.370;2023-02-01T09:23:09;99516.98;;;3.44;82.06
34696;BME280;20918;51.138;17.370;2023-02-01T09:26:10;99512.92;;;3.48;82.05
34696;BME280;20918;51.138;17.370;2023-02-01T09:29:12;99518.29;;;3.52;82.15
34696;BME280;20918;51.138;17.370;2023-02-01T09:32:12;99510.16;;;3.50;82.59
34696;BME280;20918;51.138;17.370;2023-02-01T09:35:13;99506.00;;;3.43;82.92
34696;BME280;20918;51.138;17.370;2023-02-01T09:38:13;99508.49;;;3.43;83.58
34696;BME280;20918;51.138;17.370;2023-02-01T09:47:54;99496.98;;;3.52;83.80
34696;BME280;20918;51.138;17.370;2023-02-01T09:51:00;99494.44;;;3.65;83.92
34696;BME280;20918;51.138;17.370;2023-02-01T09:54:13;99485.86;;;3.75;83.82
34696;BME280;20918;51.138;17.370;2023-02-01T09:57:24;99483.94;;;3.84;83.51
34696;BME280;20918;51.138;17.370;2023-02-01T10:00:30;99486.44;;;3.91;83.34
34696;BME280;20918;51.138;17.370;2023-02-01T10:03:35;99480.98;;;3.98;82.77
34696;BME280;20918;51.138;17.370;2023-02-01T10:06:53;99481.21;;;4.01;82.64
34696;BME280;20918;51.138;17.370;2023-02-01T10:10:05;99480.30;;;4.01;82.49
34696;BME280;20918;51.138;17.370;2023-02-01T10:13:58;99476.21;;;4.04;82.58
34696;BME280;20918;51.138;17.370;2023-02-01T10:26:42;99457.33;;;4.23;81.11
34696;BME280;20918;51.138;17.370;2023-02-01T10:29:48;99462.37;;;4.19;81.26
34696;BME280;20918;51.138;17.370;2023-02-01T10:33:14;99456.46;;;4.17;81.28
34696;BME280;20918;51.138;17.370;2023-02-01T10:36:24;99456.66;;;4.13;81.03
34696;BME280;20918;51.138;17.370;2023-02-01T10:39:27;99451.96;;;4.11;81.15
34696;BME280;20918;51.138;17.370;2023-02-01T10:42:29;99456.80;;;4.10;81.29
34696;BME280;20918;51.138;17.370;2023-02-01T10:45:35;99456.94;;;4.08;81.55
34696;BME280;20918;51.138;17.370;2023-02-01T10:48:38;99455.16;;;4.03;81.21
34696;BME280;20918;51.138;17.370;2023-02-01T10:52:02;99454.66;;;3.98;80.93
34696;BME280;20918;51.138;17.370;2023-02-01T10:55:27;99456.88;;;3.92;81.20
34696;BME280;20918;51.138;17.370;2023-02-01T10:58:44;99445.98;;;3.86;81.19
34696;BME280;20918;51.138;17.370;2023-02-01T11:01:47;99449.32;;;3.82;81.42
34696;BME280;20918;51.138;17.370;2023-02-01T11:04:48;99449.88;;;3.80;81.12
34696;BME280;20918;51.138;17.370;2023-02-01T11:07:51;99451.13;;;3.78;81.37
34696;BME280;20918;51.138;17.370;2023-02-01T11:11:03;99449.89;;;3.74;81.18
34696;BME280;20918;51.138;17.370;2023-02-01T11:23:33;99439.31;;;3.65;81.57
34696;BME280;20918;51.138;17.370;2023-02-01T11:26:40;99436.68;;;3.61;82.09
34696;BME280;20918;51.138;17.370;2023-02-01T11:29:47;99425.93;;;3.55;82.96
34696;BME280;20918;51.138;17.370;2023-02-01T11:32:50;99423.58;;;3.42;83.19
34696;BME280;20918;51.138;17.370;2023-02-01T11:35:51;99424.65;;;3.32;83.34
34696;BME280;20918;51.138;17.370;2023-02-01T11:42:15;99418.07;;;3.20;84.24
34696;BME280;20918;51.138;17.370;2023-02-01T11:45:24;99418.13;;;3.15;84.60
34696;BME280;20918;51.138;17.370;2023-02-01T11:48:28;99410.77;;;3.09;85.10
34696;BME280;20918;51.138;17.370;2023-02-01T11:51:40;99402.66;;;3.04;85.26
34696;BME280;20918;51.138;17.370;2023-02-01T12:05:38;99390.05;;;2.93;86.67
34696;BME280;20918;51.138;17.370;2023-02-01T12:08:56;99379.14;;;2.94;86.78
34696;BME280;20918;51.138;17.370;2023-02-01T12:15:34;99367.31;;;2.99;87.34
34696;BME280;20918;51.138;17.370;2023-02-01T12:19:05;99364.73;;;2.98;87.62
34696;BME280;20918;51.138;17.370;2023-02-01T12:22:34;99369.55;;;2.95;87.78
34696;BME280;20918;51.138;17.370;2023-02-01T12:35:29;99364.77;;;2.88;88.71
34696;BME280;20918;51.138;17.370;2023-02-01T12:42:16;99355.34;;;2.86;89.28
34696;BME280;20918;51.138;17.370;2023-02-01T12:52:10;99359.41;;;2.91;89.88
34696;BME280;20918;51.138;17.370;2023-02-01T13:01:41;99369.91;;;2.91;90.18
34696;BME280;20918;51.138;17.370;2023-02-01T13:08:25;99376.02;;;2.91;90.44
34696;BME280;20918;51.138;17.370;2023-02-01T13:11:33;99381.84;;;2.91;90.49
34696;BME280;20918;51.138;17.370;2023-02-01T13:17:46;99394.86;;;2.88;90.82
34696;BME280;20918;51.138;17.370;2023-02-01T13:21:07;99400.58;;;2.86;90.80
34696;BME280;20918;51.138;17.370;2023-02-01T13:24:40;99408.24;;;2.84;91.15
34696;BME280;20918;51.138;17.370;2023-02-01T13:27:43;99422.23;;;2.84;91.59
34696;BME280;20918;51.138;17.370;2023-02-01T13:37:52;99416.89;;;3.05;91.49
34696;BME280;20918;51.138;17.370;2023-02-01T13:44:38;99409.39;;;3.05;91.28
34696;BME280;20918;51.138;17.370;2023-02-01T13:47:46;99409.94;;;3.05;91.40
34696;BME280;20918;51.138;17.370;2023-02-01T13:50:53;99410.04;;;3.06;91.61
34696;BME280;20918;51.138;17.370;2023-02-01T13:53:54;99412.03;;;3.07;91.02
34696;BME280;20918;51.138;17.370;2023-02-01T13:56:56;99417.03;;;3.09;91.17
34696;BME280;20918;51.138;17.370;2023-02-01T14:00:29;99418.27;;;3.11;91.09
34696;BME280;20918;51.138;17.370;2023-02-01T14:03:47;99414.42;;;3.09;91.29
34696;BME280;20918;51.138;17.370;2023-02-01T14:06:52;99415.58;;;3.08;91.08
34696;BME280;20918;51.138;17.370;2023-02-01T14:09:53;99420.38;;;3.07;91.08
34696;BME280;20918;51.138;17.370;2023-02-01T14:13:04;99422.27;;;3.05;91.28
34696;BME280;20918;51.138;17.370;2023-02-01T14:22:39;99420.37;;;3.05;91.35
34696;BME280;20918;51.138;17.370;2023-02-01T14:25:41;99418.00;;;3.08;91.54
34696;BME280;20918;51.138;17.370;2023-02-01T14:28:46;99414.61;;;3.13;91.48
34696;BME280;20918;51.138;17.370;2023-02-01T14:32:11;99420.39;;;3.15;91.31
34696;BME280;20918;51.138;17.370;2023-02-01T14:35:29;99417.98;;;3.14;91.06
34696;BME280;20918;51.138;17.370;2023-02-01T14:38:31;99418.39;;;3.14;91.08
34696;BME280;20918;51.138;17.370;2023-02-01T14:41:45;99417.31;;;3.12;90.79
34696;BME280;20918;51.138;17.370;2023-02-01T14:44:46;99411.77;;;3.12;90.83
34696;BME280;20918;51.138;17.370;2023-02-01T14:51:20;99418.55;;;3.08;90.64
34696;BME280;20918;51.138;17.370;2023-02-01T14:54:46;99423.28;;;3.02;91.05
34696;BME280;20918;51.138;17.370;2023-02-01T14:57:52;99429.84;;;2.99;91.14
34696;BME280;20918;51.138;17.370;2023-02-01T15:01:02;99431.75;;;2.91;91.13
34696;BME280;20918;51.138;17.370;2023-02-01T15:04:08;99433.05;;;2.88;91.26
34696;BME280;20918;51.138;17.370;2023-02-01T15:07:13;99432.49;;;2.85;90.85
34696;BME280;20918;51.138;17.370;2023-02-01T15:10:17;99440.67;;;2.79;90.62
34696;BME280;20918;51.138;17.370;2023-02-01T15:13:26;99442.82;;;2.72;90.70
34696;BME280;20918;51.138;17.370;2023-02-01T15:16:28;99441.73;;;2.65;90.86
34696;BME280;20918;51.138;17.370;2023-02-01T15:19:31;99437.13;;;2.60;91.19
34696;BME280;20918;51.138;17.370;2023-02-01T15:22:32;99432.11;;;2.55;91.25
34696;BME280;20918;51.138;17.370;2023-02-01T15:25:35;99435.52;;;2.50;91.35
34696;BME280;20918;51.138;17.370;2023-02-01T15:28:39;99435.75;;;2.47;91.31
34696;BME280;20918;51.138;17.370;2023-02-01T15:31:46;99430.63;;;2.48;91.52
34696;BME280;20918;51.138;17.370;2023-02-01T15:34:49;99431.92;;;2.45;91.50
34696;BME280;20918;51.138;17.370;2023-02-01T15:37:50;99434.33;;;2.41;91.21
34696;BME280;20918;51.138;17.370;2023-02-01T15:40:54;99441.02;;;2.41;91.54
34696;BME280;20918;51.138;17.370;2023-02-01T15:46:58;99447.06;;;2.45;91.88
34696;BME280;20918;51.138;17.370;2023-02-01T15:50:03;99446.75;;;2.51;91.87
34696;BME280;20918;51.138;17.370;2023-02-01T15:53:04;99446.05;;;2.55;91.78
34696;BME280;20918;51.138;17.370;2023-02-01T15:56:06;99443.68;;;2.60;91.61
34696;BME280;20918;51.138;17.370;2023-02-01T15:59:17;99438.36;;;2.63;91.47
34696;BME280;20918;51.138;17.370;2023-02-01T16:02:34;99431.41;;;2.65;91.00
34696;BME280;20918;51.138;17.370;2023-02-01T16:05:42;99425.69;;;2.69;90.89
34696;BME280;20918;51.138;17.370;2023-02-01T16:12:03;99422.18;;;2.71;90.54
34696;BME280;20918;51.138;17.370;2023-02-01T16:15:05;99422.23;;;2.71;90.64
34696;BME280;20918;51.138;17.370;2023-02-01T16:18:07;99424.16;;;2.70;90.34
34696;BME280;20918;51.138;17.370;2023-02-01T16:21:09;99430.13;;;2.67;90.04
34696;BME280;20918;51.138;17.370;2023-02-01T16:24:10;99429.41;;;2.66;90.21
34696;BME280;20918;51.138;17.370;2023-02-01T16:27:14;99429.85;;;2.65;90.21
34696;BME280;20918;51.138;17.370;2023-02-01T16:30:15;99428.34;;;2.62;89.96
34696;BME280;20918;51.138;17.370;2023-02-01T16:33:18;99430.27;;;2.62;90.06
34696;BME280;20918;51.138;17.370;2023-02-01T16:36:22;99436.39;;;2.62;89.87
34696;BME280;20918;51.138;17.370;2023-02-01T16:39:23;99435.42;;;2.59;89.67
34696;BME280;20918;51.138;17.370;2023-02-01T16:42:24;99432.46;;;2.57;89.75
34696;BME280;20918;51.138;17.370;2023-02-01T16:45:26;99426.04;;;2.56;89.95
34696;BME280;20918;51.138;17.370;2023-02-01T16:48:29;99421.26;;;2.55;89.85
34696;BME280;20918;51.138;17.370;2023-02-01T16:51:34;99421.34;;;2.54;89.75
34696;BME280;20918;51.138;17.370;2023-02-01T16:54:38;99419.32;;;2.55;89.65
34696;BME280;20918;51.138;17.370;2023-02-01T16:57:40;99417.87;;;2.54;89.94
34696;BME280;20918;51.138;17.370;2023-02-01T17:00:43;99418.83;;;2.53;89.55
34696;BME280;20918;51.138;17.370;2023-02-01T17:03:45;99416.35;;;2.52;89.67
34696;BME280;20918;51.138;17.370;2023-02-01T17:06:47;99420.27;;;2.50;89.50
34696;BME280;20918;51.138;17.370;2023-02-01T17:09:49;99415.50;;;2.47;89.78
34696;BME280;20918;51.138;17.370;2023-02-01T17:12:50;99419.02;;;2.45;89.65
34696;BME280;20918;51.138;17.370;2023-02-01T17:15:56;99421.48;;;2.41;89.76
34696;BME280;20918;51.138;17.370;2023-02-01T17:19:06;99416.96;;;2.34;89.77
34696;BME280;20918;51.138;17.370;2023-02-01T17:22:11;99410.83;;;2.31;89.88
34696;BME280;20918;51.138;17.370;2023-02-01T17:25:17;99411.41;;;2.26;90.00
34696;BME280;20918;51.138;17.370;2023-02-01T17:28:18;99410.98;;;2.22;90.19
34696;BME280;20918;51.138;17.370;2023-02-01T17:31:19;99408.67;;;2.21;90.09
34696;BME280;20918;51.138;17.370;2023-02-01T17:34:21;99409.02;;;2.19;90.11
34696;BME280;20918;51.138;17.370;2023-02-01T17:37:28;99410.69;;;2.18;90.35
34696;BME280;20918;51.138;17.370;2023-02-01T17:40:33;99408.49;;;2.15;90.27
34696;BME280;20918;51.138;17.370;2023-02-01T17:43:34;99405.84;;;2.13;90.32
34696;BME280;20918;51.138;17.370;2023-02-01T17:46:36;99404.66;;;2.08;90.09
34696;BME280;20918;51.138;17.370;2023-02-01T17:49:36;99404.38;;;2.06;90.16
34696;BME280;20918;51.138;17.370;2023-02-01T17:52:38;99398.84;;;2.03;90.21
34696;BME280;20918;51.138;17.370;2023-02-01T17:55:42;99395.73;;;2.01;90.33
34696;BME280;20918;51.138;17.370;2023-02-01T17:58:44;99390.98;;;1.99;90.10
34696;BME280;20918;51.138;17.370;2023-02-01T18:01:46;99390.54;;;1.96;89.90
34696;BME280;20918;51.138;17.370;2023-02-01T18:04:50;99382.48;;;1.92;90.19
34696;BME280;20918;51.138;17.370;2023-02-01T18:07:51;99381.75;;;1.89;90.17
34696;BME280;20918;51.138;17.370;2023-02-01T18:10:57;99373.73;;;1.84;90.13
34696;BME280;20918;51.138;17.370;2023-02-01T18:14:01;99371.06;;;1.83;90.40
34696;BME280;20918;51.138;17.370;2023-02-01T18:17:03;99364.95;;;1.83;90.55
34696;BME280;20918;51.138;17.370;2023-02-01T18:20:04;99362.58;;;1.84;90.42
34696;BME280;20918;51.138;17.370;2023-02-01T18:23:05;99367.42;;;1.87;90.65
34696;BME280;20918;51.138;17.370;2023-02-01T18:26:15;99362.77;;;1.90;90.54
34696;BME280;20918;51.138;17.370;2023-02-01T18:29:20;99358.63;;;1.96;90.65